KBBD/BBD METAR and TAF weather

Enter ICAO airport designator
Station Type Date Time Source
KBBD METAR 2019/07/20 04:55 UTC NOAA

KBBD 200455Z AUTO 16014G19KT 10SM FEW040 28/20 A2998 RMK AO2


Station Type Date Time Source
KBBD Decoded METAR 2019/07/20 04:55 UTC NOAA

Brady, Curtis Field Airport, TX, United States (KBBD) 31-10-45N 099-19-26W
Jul 20, 2019 - 12:55 AM EDT / 2019.07.20 0455 UTC
Wind: from the SSE (160 degrees) at 16 MPH (14 KT) gusting to 22 MPH (19 KT):0
Visibility: 10 mile(s):0
Sky conditions: mostly clear
Temperature: 82 F (28 C)
Dew Point: 68 F (20 C)
Relative Humidity: 61%
Pressure (altimeter): 29.98 in. Hg (1015 hPa)
ob: KBBD 200455Z AUTO 16014G19KT 10SM FEW040 28/20 A2998 RMK AO2
cycle: 5

Station Type Date Time Source
KBBD TAF 2019/07/19 18:24 UTC NOAA

TAF KBBD 191721Z 1918/2018 17013G21KT P6SM SKC
FM200100 16010KT P6SM SKC

Example: see airport list